createdAt,value
2022-12-18T00:00:01.613Z,1025.482
2022-12-18T00:07:01.753Z,1025.482
2022-12-18T00:14:01.966Z,1025.61
2022-12-18T00:21:01.780Z,1025.75
2022-12-18T00:28:01.528Z,1025.729
2022-12-18T00:35:02.235Z,1025.729
2022-12-18T00:42:01.716Z,1025.803
2022-12-18T00:49:01.988Z,1025.841
2022-12-18T00:56:02.287Z,1025.841
2022-12-18T01:00:01.818Z,1025.461
2022-12-18T01:07:01.311Z,1025.629
2022-12-18T01:14:01.577Z,1025.629
2022-12-18T01:21:01.991Z,1025.496
2022-12-18T01:28:01.490Z,1025.761
2022-12-18T01:35:01.581Z,1025.761
2022-12-18T01:42:01.391Z,1025.565
2022-12-18T01:49:02.074Z,1025.511
2022-12-18T01:56:01.957Z,1025.522
2022-12-18T02:00:02.512Z,1025.522
2022-12-18T02:07:01.903Z,1025.818
2022-12-18T02:14:02.105Z,1025.818
2022-12-18T02:21:02.024Z,1025.729
2022-12-18T02:28:02.041Z,1025.595
2022-12-18T02:35:01.605Z,1025.448
2022-12-18T02:42:01.815Z,1025.448
2022-12-18T02:49:02.178Z,1025.218
2022-12-18T02:56:01.867Z,1025.511
2022-12-18T03:00:02.617Z,1025.511
2022-12-18T03:07:02.180Z,1025.414
2022-12-18T03:14:02.120Z,1025.356
2022-12-18T03:21:01.353Z,1025.356
2022-12-18T03:28:02.170Z,1025.182
2022-12-18T03:35:02.291Z,1025.169
2022-12-18T03:42:02.137Z,1025.162
2022-12-18T03:49:01.436Z,1025.162
2022-12-18T03:56:01.690Z,1025.164
2022-12-18T04:00:02.196Z,1025.164
2022-12-18T04:07:01.601Z,1024.994
2022-12-18T04:14:05.887Z,1024.888
2022-12-18T04:21:01.835Z,1024.898
2022-12-18T04:28:01.647Z,1024.898
2022-12-18T04:35:02.301Z,1024.978
2022-12-18T04:42:02.247Z,1024.686
2022-12-18T04:49:01.610Z,1025.101
2022-12-18T04:56:02.281Z,1025.101
2022-12-18T05:00:01.907Z,1025.039
2022-12-18T05:07:01.921Z,1025.039
2022-12-18T05:14:02.066Z,1024.703
2022-12-18T05:21:01.621Z,1024.878
2022-12-18T05:28:01.578Z,1024.696
2022-12-18T05:35:01.699Z,1024.696
2022-12-18T05:42:01.374Z,1024.794
2022-12-18T05:49:02.238Z,1024.96
2022-12-18T05:56:01.439Z,1025.294
2022-12-18T06:00:01.966Z,1025.294
2022-12-18T06:07:01.660Z,1025.227
2022-12-18T06:14:02.054Z,1025.227
2022-12-18T06:21:01.909Z,1025.62
2022-12-18T06:28:01.973Z,1025.395
2022-12-18T06:35:01.909Z,1025.464
2022-12-18T06:42:01.385Z,1025.464
2022-12-18T06:49:01.620Z,1024.775
2022-12-18T06:56:06.420Z,1024.772
2022-12-18T07:00:02.059Z,1024.772
2022-12-18T07:07:01.876Z,1024.16
2022-12-18T07:14:01.300Z,1024.887
2022-12-18T07:21:02.250Z,1024.887
2022-12-18T07:28:01.778Z,1024.897
2022-12-18T07:35:01.971Z,1024.977
2022-12-18T07:42:01.937Z,1024.977
2022-12-18T07:49:01.986Z,1024.778
2022-12-18T07:56:25.657Z,1024.716
2022-12-18T08:00:01.868Z,1024.716
2022-12-18T08:07:01.997Z,1025.025
2022-12-18T08:14:01.743Z,1024.399
2022-12-18T08:21:02.183Z,1024.277
2022-12-18T08:28:02.015Z,1024.277
2022-12-18T08:35:02.562Z,1024.143
2022-12-18T08:42:06.845Z,1024.17
2022-12-18T08:49:01.527Z,1024.17
2022-12-18T08:56:01.671Z,1024.219
2022-12-18T09:00:02.267Z,1024.104
2022-12-18T09:07:01.930Z,1024.104
2022-12-18T09:14:01.632Z,1024.164
2022-12-18T09:21:01.571Z,1024.203
2022-12-18T09:28:01.923Z,1024.203
2022-12-18T09:35:01.886Z,1024.259
2022-12-18T09:42:02.219Z,1023.89
2022-12-18T09:49:02.293Z,1023.924
2022-12-18T09:56:01.854Z,1023.924
2022-12-18T10:00:02.521Z,1023.867
2022-12-18T10:07:07.276Z,1023.867
2022-12-18T10:14:01.717Z,1023.758
2022-12-18T10:21:01.931Z,1023.462
2022-12-18T10:28:01.365Z,1023.417
2022-12-18T10:35:01.847Z,1023.417
2022-12-18T10:42:01.864Z,1023.384
2022-12-18T10:49:02.155Z,1023.325
2022-12-18T10:56:01.539Z,1022.961
2022-12-18T11:00:02.097Z,1022.961
2022-12-18T11:07:01.423Z,1022.859
2022-12-18T11:14:01.978Z,1022.859
2022-12-18T11:21:02.137Z,1022.698
2022-12-18T11:28:01.685Z,1022.684
2022-12-18T11:35:02.387Z,1022.412
2022-12-18T11:42:01.912Z,1022.412
2022-12-18T11:49:02.036Z,1022.468
2022-12-18T11:56:01.648Z,1022.555
2022-12-18T12:00:02.272Z,1022.555
2022-12-18T12:07:03.266Z,1022.255
2022-12-18T12:14:02.167Z,1022.262
2022-12-18T12:21:02.287Z,1022.262
2022-12-18T12:28:02.273Z,1022.17
2022-12-18T12:35:07.748Z,1022.043
2022-12-18T12:42:01.448Z,1021.893
2022-12-18T12:49:01.543Z,1021.893
2022-12-18T12:56:01.294Z,1021.972
2022-12-18T13:00:01.813Z,1021.972
2022-12-18T13:07:01.962Z,1022.08
2022-12-18T13:14:01.734Z,1021.852
2022-12-18T13:21:03.553Z,1021.925
2022-12-18T13:28:01.983Z,1021.925
2022-12-18T13:35:02.424Z,1021.7
2022-12-18T13:42:01.809Z,1021.54
2022-12-18T13:49:01.409Z,1021.54
2022-12-18T13:56:01.529Z,1021.441
2022-12-18T14:00:02.445Z,1021.347
2022-12-18T14:07:01.425Z,1021.347
2022-12-18T14:14:02.236Z,1021.419
2022-12-18T14:21:02.246Z,1021.164
2022-12-18T14:28:01.456Z,1020.923
2022-12-18T14:35:02.632Z,1020.923
2022-12-18T14:42:01.334Z,1020.867
2022-12-18T14:49:02.192Z,1020.76
2022-12-18T14:56:01.665Z,1020.76
2022-12-18T15:00:02.296Z,1020.717
2022-12-18T15:07:01.639Z,1020.64
2022-12-18T15:14:01.606Z,1020.64
2022-12-18T15:21:01.536Z,1020.63
2022-12-18T15:28:01.425Z,1020.588
2022-12-18T15:35:02.256Z,1020.588
2022-12-18T15:42:01.614Z,1020.406
2022-12-18T15:49:03.010Z,1020.548
2022-12-18T15:56:01.701Z,1020.575
2022-12-18T16:00:02.460Z,1020.575
2022-12-18T16:07:16.072Z,1020.508
2022-12-18T16:14:01.687Z,1020.508
2022-12-18T16:21:01.849Z,1020.837
2022-12-18T16:28:02.156Z,1020.71
2022-12-18T16:35:01.781Z,1020.634
2022-12-18T16:42:02.657Z,1020.634
2022-12-18T16:49:01.767Z,1020.695
2022-12-18T16:56:02.044Z,1020.371
2022-12-18T17:00:05.460Z,1020.371
2022-12-18T17:07:01.811Z,1020.527
2022-12-18T17:14:01.927Z,1020.489
2022-12-18T17:21:01.980Z,1020.489
2022-12-18T17:28:02.246Z,1020.363
2022-12-18T17:35:06.962Z,1020.133
2022-12-18T17:42:02.183Z,1020.097
2022-12-18T17:49:01.491Z,1020.097
2022-12-18T17:56:01.649Z,1020.142
2022-12-18T18:00:02.305Z,1020.142
2022-12-18T18:07:02.205Z,1020.408
2022-12-18T18:14:01.606Z,1020.249
2022-12-18T18:21:02.185Z,1020.414
2022-12-18T18:28:01.792Z,1020.414
2022-12-18T18:35:02.351Z,1020.453
2022-12-18T18:42:01.978Z,1020.426
2022-12-18T18:49:01.898Z,1020.281
2022-12-18T18:56:37.422Z,1020.281
2022-12-18T19:00:01.567Z,1020.152
2022-12-18T19:07:01.707Z,1020.152
2022-12-18T19:14:01.506Z,1020.202
2022-12-18T19:21:01.367Z,1020.234
2022-12-18T19:28:01.436Z,1020.175
2022-12-18T19:35:02.102Z,1020.175
2022-12-18T19:42:02.176Z,1020.436
2022-12-18T19:49:02.590Z,1020.114
2022-12-18T19:56:01.676Z,1020.114
2022-12-18T20:00:02.318Z,1020.265
2022-12-18T20:07:01.818Z,1020.234
2022-12-18T20:14:02.240Z,1020.234
2022-12-18T20:21:01.427Z,1020.501
2022-12-18T20:28:01.849Z,1020.161
2022-12-18T20:35:04.009Z,1020.359
2022-12-18T20:42:02.282Z,1020.359
2022-12-18T20:49:01.478Z,1020.151
2022-12-18T20:56:01.962Z,1020.114
2022-12-18T21:00:01.503Z,1020.114
2022-12-18T21:07:02.885Z,1020.502
2022-12-18T21:14:01.910Z,1020.38
2022-12-18T21:21:02.087Z,1020.38
2022-12-18T21:28:01.664Z,1020.308
2022-12-18T21:35:01.653Z,1020.213
2022-12-18T21:42:01.723Z,1020.213
2022-12-18T21:49:01.865Z,1020.162
2022-12-18T21:56:01.860Z,1020.075
2022-12-18T22:00:02.544Z,1020.075
2022-12-18T22:07:01.306Z,1019.829
2022-12-18T22:14:01.418Z,1019.993
2022-12-18T22:21:01.733Z,1019.647
2022-12-18T22:28:01.511Z,1019.647
2022-12-18T22:35:08.043Z,1019.376
2022-12-18T22:42:01.721Z,1019.182
2022-12-18T22:49:01.348Z,1019.182
2022-12-18T22:56:02.293Z,1019.412
2022-12-18T23:00:02.014Z,1019.038
2022-12-18T23:07:02.291Z,1019.038
2022-12-18T23:14:01.345Z,1019.2
2022-12-18T23:21:01.756Z,1019.003
2022-12-18T23:28:01.454Z,1019.003
2022-12-18T23:35:02.592Z,1018.823
2022-12-18T23:42:01.823Z,1018.432
2022-12-18T23:49:01.882Z,1018.46
2022-12-18T23:56:01.503Z,1018.46
